Time;durP1;ratioP1;P1;durP2;ratioP2;P2;SDS_P1;SDS_P2;PMS_P1;PMS_P2;Temp;Humidity;BMP_temperature;BMP_pressure;BME280_temperature;BME280_humidity;BME280_pressure;Samples;Min_cycle;Max_cycle;Signal;HPM_P1;HPM_P2
2023/06/04 00:00:10;;;;;;;1.67;0.30;;;13.00;98.70;;;;;;5071668;28;20028;-74
2023/06/04 00:02:36;;;;;;;2.38;0.45;;;13.00;98.90;;;;;;5053270;28;20040;-74
2023/06/04 00:05:01;;;;;;;1.80;0.30;;;13.00;99.30;;;;;;5054749;28;20020;-73
2023/06/04 00:07:27;;;;;;;5.57;0.40;;;12.90;99.60;;;;;;5071178;28;20028;-74
2023/06/04 00:09:53;;;;;;;3.55;0.30;;;12.90;99.80;;;;;;5071022;28;20017;-74
2023/06/04 00:12:18;;;;;;;3.83;0.40;;;12.90;99.90;;;;;;5069744;28;20512;-74
2023/06/04 00:14:44;;;;;;;1.58;0.40;;;12.80;99.90;;;;;;5053470;28;20039;-74
2023/06/04 00:17:10;;;;;;;2.00;0.40;;;12.80;99.90;;;;;;5069690;28;20035;-73
2023/06/04 00:19:38;;;;;;;1.88;0.60;;;12.80;99.90;;;;;;5069557;28;20059;-73
2023/06/04 00:22:04;;;;;;;1.80;0.40;;;12.80;99.90;;;;;;5071034;28;20076;-73
2023/06/04 00:24:29;;;;;;;1.50;0.40;;;12.80;99.90;;;;;;5068980;28;20036;-74
2023/06/04 00:26:55;;;;;;;2.15;0.40;;;12.80;99.90;;;;;;5061604;28;20028;-74
2023/06/04 00:29:21;;;;;;;1.08;0.38;;;12.70;99.90;;;;;;5071744;28;20157;-74
2023/06/04 00:31:46;;;;;;;1.08;0.50;;;12.70;99.90;;;;;;5053283;28;20094;-73
2023/06/04 00:34:12;;;;;;;2.63;0.40;;;12.70;99.90;;;;;;5068304;28;20366;-75
2023/06/04 00:36:38;;;;;;;1.20;0.40;;;12.70;99.90;;;;;;5071713;28;20083;-73
2023/06/04 00:39:04;;;;;;;1.77;0.40;;;12.70;99.90;;;;;;5070341;28;20036;-74
2023/06/04 00:41:29;;;;;;;2.03;0.50;;;12.70;99.90;;;;;;5050720;28;20061;-74
2023/06/04 00:44:01;;;;;;;1.20;0.40;;;12.60;99.90;;;;;;5070762;28;20028;-74
2023/06/04 00:46:28;;;;;;;2.33;0.82;;;12.60;99.90;;;;;;5070044;28;20027;-74
2023/06/04 00:48:54;;;;;;;1.50;0.43;;;12.60;99.90;;;;;;5069880;28;20074;-74
2023/06/04 00:51:21;;;;;;;4.32;0.47;;;12.50;99.90;;;;;;5070390;28;20028;-74
2023/06/04 00:53:48;;;;;;;1.95;0.40;;;12.50;99.90;;;;;;5068654;28;20319;-74
2023/06/04 00:56:14;;;;;;;1.33;0.38;;;12.40;99.90;;;;;;5067955;28;20264;-74
2023/06/04 00:58:40;;;;;;;3.50;0.40;;;12.40;99.90;;;;;;5067695;28;20143;-74
2023/06/04 01:01:15;;;;;;;3.38;0.60;;;12.40;99.90;;;;;;5071016;28;20504;-74
2023/06/04 01:03:44;;;;;;;1.95;0.80;;;12.30;99.90;;;;;;5070205;28;20021;-73
2023/06/04 01:06:22;;;;;;;5.75;0.60;;;12.30;99.90;;;;;;5071260;28;20028;-73
2023/06/04 01:08:54;;;;;;;3.65;0.50;;;12.30;99.90;;;;;;5069630;28;20839;-74
2023/06/04 01:11:39;;;;;;;2.83;0.40;;;12.20;99.90;;;;;;5070737;28;20028;-74
2023/06/04 01:14:10;;;;;;;2.60;0.50;;;12.10;99.90;;;;;;5062809;28;20396;-74
2023/06/04 01:17:02;;;;;;;4.10;0.50;;;12.10;99.90;;;;;;5068606;28;20166;-74
2023/06/04 01:19:29;;;;;;;2.53;0.50;;;12.00;99.90;;;;;;5051400;28;20569;-73
2023/06/04 01:22:02;;;;;;;2.45;0.40;;;11.90;99.90;;;;;;5053264;28;20036;-73
2023/06/04 01:24:28;;;;;;;2.70;0.60;;;11.90;99.90;;;;;;5070677;28;20107;-74
2023/06/04 01:26:55;;;;;;;6.63;0.50;;;11.80;99.90;;;;;;5067441;28;20119;-73
2023/06/04 01:29:22;;;;;;;1.40;0.50;;;11.70;99.90;;;;;;5052394;28;20031;-74
2023/06/04 01:31:52;;;;;;;1.65;0.40;;;11.70;99.90;;;;;;5070860;28;20421;-73
2023/06/04 01:34:17;;;;;;;2.85;0.40;;;11.60;99.90;;;;;;5044282;28;20036;-74
2023/06/04 01:36:43;;;;;;;2.20;0.40;;;11.60;99.90;;;;;;5059591;28;20024;-74
2023/06/04 01:39:08;;;;;;;1.60;0.63;;;11.60;99.90;;;;;;5068110;28;20484;-74
2023/06/04 01:41:34;;;;;;;2.20;0.77;;;11.50;99.90;;;;;;5070009;28;20033;-73
2023/06/04 01:43:59;;;;;;;4.93;0.60;;;11.50;99.90;;;;;;5069496;28;20024;-73
2023/06/04 01:46:25;;;;;;;2.33;0.50;;;11.50;99.90;;;;;;5069181;28;20021;-74
2023/06/04 01:48:51;;;;;;;3.83;0.60;;;11.50;99.90;;;;;;5069853;28;20047;-74
2023/06/04 01:51:16;;;;;;;1.42;0.40;;;11.50;99.90;;;;;;5068111;28;20029;-74
2023/06/04 01:53:42;;;;;;;4.05;0.40;;;11.50;99.90;;;;;;5063067;28;20039;-73
2023/06/04 01:56:08;;;;;;;2.05;0.50;;;11.40;99.90;;;;;;5067625;28;20028;-74
2023/06/04 01:58:33;;;;;;;5.97;0.60;;;11.40;99.90;;;;;;5065056;28;20016;-74
2023/06/04 02:01:03;;;;;;;2.97;0.55;;;11.40;99.90;;;;;;5063376;28;20040;-73
2023/06/04 02:03:36;;;;;;;2.08;0.47;;;11.40;99.90;;;;;;5068204;28;20050;-73
2023/06/04 02:06:03;;;;;;;;;;;11.40;99.90;;;;;;5069548;28;20039;-74
2023/06/04 02:08:30;;;;;;;2.45;0.40;;;11.30;99.90;;;;;;5067693;28;19913;-73
2023/06/04 02:10:55;;;;;;;1.88;0.40;;;11.30;99.90;;;;;;5069582;28;20029;-73
2023/06/04 02:13:21;;;;;;;3.28;0.50;;;11.30;99.90;;;;;;5067904;28;20100;-74
2023/06/04 02:15:46;;;;;;;2.53;0.50;;;11.20;99.90;;;;;;5070995;28;20060;-73
2023/06/04 02:18:17;;;;;;;3.28;0.55;;;11.20;99.90;;;;;;5066337;28;20032;-74
2023/06/04 02:20:46;;;;;;;9.18;0.57;;;11.20;99.90;;;;;;5062059;28;20033;-73
2023/06/04 02:23:12;;;;;;;2.38;0.50;;;11.10;99.90;;;;;;5049614;28;20480;-73
2023/06/04 02:25:38;;;;;;;1.50;0.47;;;11.10;99.90;;;;;;5051539;28;20527;-73
2023/06/04 02:28:04;;;;;;;1.85;0.40;;;11.10;99.90;;;;;;5066540;28;20090;-74
2023/06/04 02:30:29;;;;;;;1.60;0.60;;;11.00;99.90;;;;;;5068438;28;20013;-73
2023/06/04 02:32:56;;;;;;;3.15;0.40;;;11.10;99.90;;;;;;5068809;28;20028;-74
2023/06/04 02:35:24;;;;;;;2.10;0.50;;;11.10;99.90;;;;;;5067729;28;20092;-74
2023/06/04 02:37:50;;;;;;;1.75;0.50;;;11.10;99.90;;;;;;5050790;28;20399;-73
2023/06/04 02:40:16;;;;;;;2.42;0.40;;;11.10;99.90;;;;;;5068400;28;20464;-74
2023/06/04 02:42:42;;;;;;;2.45;0.60;;;11.10;99.90;;;;;;5063301;28;20056;-73
2023/06/04 02:45:08;;;;;;;1.85;0.40;;;11.10;99.90;;;;;;5041823;28;20113;-73
2023/06/04 02:47:33;;;;;;;3.38;0.50;;;11.00;99.90;;;;;;5049579;28;20061;-74
2023/06/04 02:49:59;;;;;;;2.03;0.52;;;11.00;99.90;;;;;;5068342;28;20025;-73
2023/06/04 02:52:25;;;;;;;3.45;0.80;;;11.00;99.90;;;;;;5069576;28;20429;-73
2023/06/04 02:54:51;;;;;;;1.73;0.50;;;11.00;99.90;;;;;;5072300;28;20081;-73
2023/06/04 02:57:16;;;;;;;3.22;0.52;;;10.90;99.90;;;;;;5069715;28;20173;-73
2023/06/04 02:59:42;;;;;;;3.70;0.63;;;10.90;99.90;;;;;;5069901;28;20484;-73
2023/06/04 03:02:07;;;;;;;2.05;0.50;;;10.90;99.90;;;;;;5065390;28;20117;-73
2023/06/04 03:04:34;;;;;;;2.65;0.60;;;10.80;99.90;;;;;;5068320;28;20154;-74
2023/06/04 03:07:04;;;;;;;2.55;0.55;;;10.80;99.90;;;;;;5072237;28;20561;-73
2023/06/04 03:09:30;;;;;;;3.47;0.50;;;10.80;99.90;;;;;;5069181;28;20377;-73
2023/06/04 03:12:03;;;;;;;2.38;0.60;;;10.70;99.90;;;;;;5070423;28;20028;-74
2023/06/04 03:14:32;;;;;;;1.85;0.50;;;10.70;99.90;;;;;;5054120;28;20029;-73
2023/06/04 03:17:00;;;;;;;2.08;0.60;;;10.70;99.90;;;;;;5070682;28;20151;-73
2023/06/04 03:19:27;;;;;;;3.55;0.52;;;10.60;99.90;;;;;;5072824;28;20021;-73
2023/06/04 03:21:53;;;;;;;3.90;0.50;;;10.60;99.90;;;;;;5069891;28;20033;-73
2023/06/04 03:24:19;;;;;;;1.98;0.52;;;10.60;99.90;;;;;;5055440;28;20429;-73
2023/06/04 03:26:45;;;;;;;1.40;0.50;;;10.50;99.90;;;;;;5071146;28;20032;-73
2023/06/04 03:29:11;;;;;;;5.22;0.55;;;10.50;99.90;;;;;;5073077;28;20380;-73
2023/06/04 03:31:37;;;;;;;2.55;0.77;;;10.50;99.90;;;;;;5067020;28;20027;-73
2023/06/04 03:34:02;;;;;;;1.77;0.63;;;10.50;99.90;;;;;;5069734;28;20029;-74
2023/06/04 03:36:37;;;;;;;1.80;0.70;;;10.40;99.90;;;;;;5066591;28;20029;-74
2023/06/04 03:39:04;;;;;;;2.67;0.60;;;10.40;99.90;;;;;;5052677;28;20098;-73
2023/06/04 03:41:30;;;;;;;2.85;0.60;;;10.40;99.90;;;;;;5050950;28;20122;-74
2023/06/04 03:43:56;;;;;;;2.70;0.60;;;10.40;99.90;;;;;;5071270;28;20499;-73
2023/06/04 03:46:21;;;;;;;3.80;0.52;;;10.40;99.90;;;;;;5070260;28;20052;-74
2023/06/04 03:48:47;;;;;;;1.58;0.50;;;10.30;99.90;;;;;;5072474;28;20077;-73
2023/06/04 03:51:12;;;;;;;4.57;0.60;;;10.40;99.90;;;;;;5066505;28;20052;-74
2023/06/04 03:53:38;;;;;;;3.17;0.60;;;10.40;99.90;;;;;;5068340;28;20097;-73
2023/06/04 03:56:03;;;;;;;2.92;0.70;;;10.40;99.90;;;;;;5070676;28;20044;-73
2023/06/04 03:58:29;;;;;;;7.22;1.77;;;10.40;99.90;;;;;;5063668;28;20043;-74
2023/06/04 04:00:55;;;;;;;3.60;0.68;;;10.40;99.90;;;;;;5069062;28;20055;-75
2023/06/04 04:03:21;;;;;;;2.75;0.60;;;10.40;99.90;;;;;;5071046;28;20483;-73
2023/06/04 04:05:47;;;;;;;3.13;0.70;;;10.50;99.90;;;;;;5063106;28;20396;-73
2023/06/04 04:08:16;;;;;;;1.65;0.55;;;10.50;99.90;;;;;;5071007;28;20029;-73
2023/06/04 04:10:41;;;;;;;2.03;0.55;;;10.60;99.90;;;;;;5045751;28;20024;-74
2023/06/04 04:13:07;;;;;;;1.73;0.60;;;10.60;99.90;;;;;;5071212;28;20024;-73
2023/06/04 04:15:32;;;;;;;3.53;0.60;;;10.70;99.90;;;;;;5069740;28;20029;-73
2023/06/04 04:17:58;;;;;;;3.78;0.60;;;10.80;99.90;;;;;;5059424;28;20060;-73
2023/06/04 04:20:23;;;;;;;3.05;0.68;;;10.80;99.90;;;;;;5061956;28;20388;-73
2023/06/04 04:22:49;;;;;;;1.98;0.60;;;10.80;99.90;;;;;;5069280;28;20032;-73
2023/06/04 04:25:15;;;;;;;2.53;0.52;;;10.90;99.90;;;;;;5070879;28;20404;-73
2023/06/04 04:27:41;;;;;;;4.35;1.08;;;11.00;99.90;;;;;;5071630;28;20031;-73
2023/06/04 04:30:07;;;;;;;2.25;0.55;;;11.00;99.90;;;;;;5068777;28;20055;-73
2023/06/04 04:32:32;;;;;;;2.60;0.75;;;11.00;99.90;;;;;;5057646;28;20029;-73
2023/06/04 04:34:59;;;;;;;1.98;0.57;;;11.10;99.90;;;;;;5070892;28;20043;-73
2023/06/04 04:37:26;;;;;;;3.67;0.75;;;11.10;99.90;;;;;;5070929;28;20489;-73
2023/06/04 04:39:52;;;;;;;1.88;0.60;;;11.20;99.90;;;;;;5069560;28;20069;-73
2023/06/04 04:42:18;;;;;;;4.30;0.80;;;11.20;99.90;;;;;;5068441;28;20032;-73
2023/06/04 04:44:47;;;;;;;2.42;0.70;;;11.30;99.90;;;;;;5070428;28;20029;-74
2023/06/04 04:47:16;;;;;;;2.55;0.68;;;11.30;99.90;;;;;;5061932;28;20069;-73
2023/06/04 04:49:42;;;;;;;2.17;0.70;;;11.40;99.90;;;;;;5070451;28;20472;-73
2023/06/04 04:52:07;;;;;;;3.35;0.60;;;11.40;99.90;;;;;;5070601;28;20036;-74
2023/06/04 04:54:33;;;;;;;2.13;0.57;;;11.60;99.90;;;;;;5071022;28;20024;-74
2023/06/04 04:56:58;;;;;;;2.45;0.60;;;11.80;99.90;;;;;;5061728;28;20032;-73
2023/06/04 04:59:24;;;;;;;7.03;0.70;;;12.20;99.90;;;;;;5059592;28;20074;-73
2023/06/04 05:01:49;;;;;;;2.03;0.60;;;12.50;99.90;;;;;;5065286;28;20032;-73
2023/06/04 05:04:15;;;;;;;3.28;0.60;;;12.80;99.90;;;;;;5050809;28;20112;-73
2023/06/04 05:06:40;;;;;;;6.28;0.77;;;13.10;99.90;;;;;;5072469;28;20017;-73
2023/06/04 05:09:07;;;;;;;4.22;0.77;;;13.40;99.90;;;;;;5071828;28;20016;-73
2023/06/04 05:11:33;;;;;;;2.42;0.60;;;13.60;99.90;;;;;;5066830;28;20020;-73
2023/06/04 05:13:58;;;;;;;3.03;0.60;;;13.90;99.90;;;;;;5068904;28;20024;-73
2023/06/04 05:16:25;;;;;;;4.75;0.82;;;14.10;99.90;;;;;;5067904;28;20443;-73
2023/06/04 05:18:51;;;;;;;4.55;0.82;;;14.20;99.90;;;;;;5065887;28;20484;-74
2023/06/04 05:21:17;;;;;;;2.47;0.60;;;14.40;99.90;;;;;;5061660;28;20053;-73
2023/06/04 05:23:45;;;;;;;5.40;0.82;;;14.60;99.90;;;;;;5057267;28;20020;-73
2023/06/04 05:26:10;;;;;;;3.53;0.60;;;14.80;99.90;;;;;;5067995;28;20047;-73
2023/06/04 05:28:36;;;;;;;4.65;0.73;;;15.10;99.90;;;;;;5046440;28;20024;-73
2023/06/04 05:31:02;;;;;;;5.90;0.80;;;15.20;99.90;;;;;;5062898;28;20052;-74
2023/06/04 05:33:30;;;;;;;3.92;0.68;;;15.40;99.90;;;;;;5061495;28;20033;-74
2023/06/04 05:35:57;;;;;;;3.83;0.60;;;15.60;99.90;;;;;;5066487;28;20031;-73
2023/06/04 05:38:26;;;;;;;2.67;0.70;;;15.70;99.90;;;;;;5058567;28;20071;-73
2023/06/04 05:40:55;;;;;;;6.93;0.77;;;15.80;99.10;;;;;;5067641;28;20056;-74
2023/06/04 05:43:21;;;;;;;3.42;0.70;;;15.80;98.90;;;;;;5068709;28;20063;-73
2023/06/04 05:45:47;;;;;;;2.65;0.60;;;15.90;97.90;;;;;;5063319;28;20024;-74
2023/06/04 05:48:13;;;;;;;2.53;0.70;;;15.80;97.00;;;;;;5065317;28;20024;-72
2023/06/04 05:50:39;;;;;;;2.42;0.82;;;15.80;97.00;;;;;;5066738;28;20094;-74
2023/06/04 05:53:04;;;;;;;2.72;0.60;;;15.60;96.40;;;;;;5063459;28;20043;-74
2023/06/04 05:55:30;;;;;;;2.60;0.80;;;15.50;96.50;;;;;;5064416;28;20028;-74
2023/06/04 05:57:55;;;;;;;3.10;0.80;;;15.40;96.80;;;;;;5068497;28;20476;-74
2023/06/04 06:00:22;;;;;;;4.22;1.20;;;15.50;96.90;;;;;;5065204;28;20036;-73
2023/06/04 06:02:50;;;;;;;4.40;1.02;;;15.40;96.70;;;;;;5067252;28;20036;-73
2023/06/04 06:05:17;;;;;;;3.75;1.00;;;15.30;96.70;;;;;;5065493;28;20021;-74
2023/06/04 06:07:43;;;;;;;3.80;0.60;;;15.30;96.70;;;;;;5070516;28;20035;-74
2023/06/04 06:10:09;;;;;;;4.95;0.85;;;15.20;96.90;;;;;;5064108;28;20024;-74
2023/06/04 06:12:35;;;;;;;3.97;1.20;;;15.20;96.90;;;;;;5066401;28;20028;-74
2023/06/04 06:15:00;;;;;;;3.90;0.80;;;15.20;97.00;;;;;;5070873;28;20029;-74
2023/06/04 06:17:26;;;;;;;4.18;1.10;;;15.20;97.10;;;;;;5070516;28;20031;-72
2023/06/04 06:19:52;;;;;;;4.45;0.90;;;15.20;97.20;;;;;;5072015;28;20036;-74
2023/06/04 06:22:18;;;;;;;4.70;1.13;;;15.30;97.20;;;;;;5065156;28;20028;-74
2023/06/04 06:24:43;;;;;;;3.88;0.90;;;15.30;97.20;;;;;;5067689;28;20100;-74
2023/06/04 06:27:10;;;;;;;3.78;1.42;;;15.40;97.30;;;;;;5070205;28;20043;-74
2023/06/04 06:29:36;;;;;;;3.00;0.90;;;15.40;97.20;;;;;;5049020;28;20039;-74
2023/06/04 06:32:02;;;;;;;4.30;1.00;;;15.50;97.30;;;;;;5073924;28;20021;-74
2023/06/04 06:34:28;;;;;;;4.40;0.82;;;15.60;97.10;;;;;;5071438;28;20021;-75
2023/06/04 06:36:54;;;;;;;5.00;0.88;;;15.70;96.90;;;;;;5060723;28;20054;-75
2023/06/04 06:39:19;;;;;;;3.20;0.80;;;15.70;96.60;;;;;;5071948;28;20020;-73
2023/06/04 06:41:45;;;;;;;2.95;0.80;;;15.80;96.60;;;;;;5068231;28;20055;-73
2023/06/04 06:44:11;;;;;;;2.88;1.08;;;15.80;96.50;;;;;;5073150;28;20361;-73
2023/06/04 06:46:36;;;;;;;2.90;0.80;;;15.90;96.70;;;;;;5073136;28;20025;-73
2023/06/04 06:49:02;;;;;;;3.05;0.80;;;16.10;96.70;;;;;;5074125;28;20090;-73
2023/06/04 06:51:27;;;;;;;2.80;1.30;;;16.20;96.30;;;;;;5068431;28;20031;-73
2023/06/04 06:53:53;;;;;;;5.60;0.93;;;16.30;95.80;;;;;;5058911;28;20060;-72
2023/06/04 06:56:19;;;;;;;2.58;0.88;;;16.30;95.70;;;;;;5073325;28;20033;-73
2023/06/04 06:58:45;;;;;;;3.63;1.08;;;16.30;95.70;;;;;;5071194;28;20055;-73
2023/06/04 07:01:11;;;;;;;3.88;0.90;;;16.40;95.70;;;;;;5059907;28;20025;-74
2023/06/04 07:03:38;;;;;;;3.97;0.75;;;16.50;95.70;;;;;;5056960;28;20124;-73
2023/06/04 07:06:03;;;;;;;3.30;0.90;;;16.50;95.50;;;;;;5064541;28;20070;-72
2023/06/04 07:08:29;;;;;;;4.10;0.70;;;16.60;95.60;;;;;;5064051;28;20017;-73
2023/06/04 07:10:55;;;;;;;4.32;0.85;;;16.70;95.10;;;;;;5039034;28;20473;-73
2023/06/04 07:13:20;;;;;;;2.63;0.80;;;16.80;94.80;;;;;;5074389;28;20028;-73
2023/06/04 07:15:46;;;;;;;4.10;1.08;;;16.90;94.50;;;;;;5067823;28;20035;-73
2023/06/04 07:18:12;;;;;;;2.30;0.60;;;16.90;94.30;;;;;;5065959;28;20024;-74
2023/06/04 07:20:37;;;;;;;2.90;0.73;;;17.00;93.90;;;;;;5061959;28;20024;-73
2023/06/04 07:23:03;;;;;;;3.83;0.68;;;17.00;93.40;;;;;;5063197;28;20047;-74
2023/06/04 07:25:28;;;;;;;2.60;0.70;;;17.10;93.10;;;;;;5068325;28;20055;-75
2023/06/04 07:27:57;;;;;;;5.72;0.98;;;17.10;92.10;;;;;;5063017;28;20093;-73
2023/06/04 07:30:24;;;;;;;4.57;1.00;;;17.20;91.70;;;;;;5060362;28;20051;-73
2023/06/04 07:32:50;;;;;;;3.58;0.70;;;17.30;91.80;;;;;;5072648;28;20515;-72
2023/06/04 07:35:16;;;;;;;2.15;0.60;;;17.40;91.00;;;;;;5067471;28;20118;-73
2023/06/04 07:37:44;;;;;;;2.75;0.70;;;17.40;91.00;;;;;;5066729;28;20140;-73
2023/06/04 07:40:10;;;;;;;3.65;0.98;;;17.50;90.20;;;;;;5071862;28;20464;-74
2023/06/04 07:42:36;;;;;;;3.95;0.75;;;17.50;89.30;;;;;;5069620;28;20052;-74
2023/06/04 07:45:02;;;;;;;2.80;0.70;;;17.40;89.10;;;;;;5067494;28;20025;-73
2023/06/04 07:47:27;;;;;;;2.70;0.80;;;17.50;89.30;;;;;;5073412;28;20024;-73
2023/06/04 07:49:53;;;;;;;1.75;0.80;;;17.60;88.50;;;;;;5071758;28;20055;-74
2023/06/04 07:52:19;;;;;;;1.80;0.65;;;17.70;87.50;;;;;;5067515;28;20059;-73
2023/06/04 07:54:44;;;;;;;4.57;0.75;;;17.80;86.10;;;;;;5074182;28;20017;-73
2023/06/04 07:57:10;;;;;;;3.42;0.65;;;17.80;84.50;;;;;;5073746;28;20103;-73
2023/06/04 07:59:36;;;;;;;2.20;0.60;;;17.90;84.70;;;;;;5073470;28;20026;-73
2023/06/04 08:02:01;;;;;;;3.22;1.45;;;18.00;84.40;;;;;;5069739;28;20040;-74
2023/06/04 08:04:27;;;;;;;2.42;0.70;;;18.10;82.80;;;;;;5070525;28;20025;-72
2023/06/04 08:06:52;;;;;;;1.70;0.50;;;18.10;81.70;;;;;;5071544;28;20471;-73
2023/06/04 08:09:18;;;;;;;4.10;0.70;;;18.20;81.70;;;;;;5054592;28;20052;-73
2023/06/04 08:11:44;;;;;;;2.42;0.55;;;18.20;80.70;;;;;;5071314;28;20160;-73
2023/06/04 08:14:11;;;;;;;3.15;0.50;;;18.30;80.00;;;;;;5073513;28;20027;-72
2023/06/04 08:16:36;;;;;;;3.10;0.50;;;18.30;79.80;;;;;;5072039;28;20024;-72
2023/06/04 08:19:02;;;;;;;4.07;0.73;;;18.50;80.00;;;;;;5062948;28;20024;-73
2023/06/04 08:21:28;;;;;;;1.00;0.50;;;18.70;78.70;;;;;;5071136;28;20081;-72
2023/06/04 08:23:55;;;;;;;4.15;0.73;;;18.80;77.90;;;;;;5055025;28;20035;-72
2023/06/04 08:26:21;;;;;;;1.67;0.50;;;18.90;76.00;;;;;;5071957;28;20021;-73
2023/06/04 08:28:50;;;;;;;2.28;0.50;;;18.90;75.60;;;;;;5072510;28;20361;-73
2023/06/04 08:31:17;;;;;;;1.83;0.50;;;18.90;75.70;;;;;;5064952;28;20032;-72
2023/06/04 08:33:46;;;;;;;3.05;1.05;;;19.00;75.10;;;;;;5054475;28;20495;-72
2023/06/04 08:36:12;;;;;;;2.38;0.52;;;19.10;74.20;;;;;;5066031;28;20033;-73
2023/06/04 08:38:38;;;;;;;2.53;0.50;;;19.20;73.70;;;;;;5058602;28;20505;-72
2023/06/04 08:41:14;;;;;;;1.77;0.40;;;19.20;71.90;;;;;;5066266;28;20078;-73
2023/06/04 08:43:43;;;;;;;2.88;0.73;;;19.20;71.30;;;;;;5070764;28;20013;-73
2023/06/04 08:46:09;;;;;;;1.52;0.32;;;19.30;71.70;;;;;;5073872;28;20427;-72
2023/06/04 08:48:37;;;;;;;3.65;0.60;;;19.40;71.80;;;;;;5072414;28;20078;-73
2023/06/04 08:51:05;;;;;;;2.60;0.50;;;19.50;69.60;;;;;;5071329;28;20476;-73
2023/06/04 08:53:31;;;;;;;1.63;0.35;;;19.60;70.30;;;;;;5071705;28;20078;-72
2023/06/04 08:55:57;;;;;;;1.67;0.50;;;19.70;69.80;;;;;;5067098;28;20063;-73
2023/06/04 08:58:24;;;;;;;0.88;0.30;;;19.80;68.80;;;;;;5072936;28;20032;-72
2023/06/04 09:00:50;;;;;;;2.45;0.50;;;19.80;68.20;;;;;;5059299;28;20495;-73
2023/06/04 09:03:17;;;;;;;3.58;0.75;;;19.90;67.40;;;;;;5066228;28;20060;-72
2023/06/04 09:05:47;;;;;;;3.63;0.43;;;20.00;67.20;;;;;;5070586;28;20029;-72
2023/06/04 09:08:16;;;;;;;2.13;0.60;;;20.10;67.50;;;;;;5069058;28;20045;-73
2023/06/04 09:10:44;;;;;;;1.33;0.40;;;20.10;66.10;;;;;;5064629;28;20044;-72
2023/06/04 09:13:10;;;;;;;3.20;0.40;;;20.20;65.50;;;;;;5060656;28;20028;-73
2023/06/04 09:15:36;;;;;;;3.90;0.60;;;20.20;64.10;;;;;;5061093;28;20021;-72
2023/06/04 09:18:02;;;;;;;0.80;0.30;;;20.30;61.90;;;;;;5067331;28;20377;-72
2023/06/04 09:20:28;;;;;;;2.30;0.40;;;20.40;62.40;;;;;;5080908;28;20079;-72
2023/06/04 09:22:53;;;;;;;2.53;0.50;;;20.50;62.10;;;;;;5074039;28;20039;-72
2023/06/04 09:25:27;;;;;;;1.92;0.30;;;20.60;62.70;;;;;;5072646;28;20103;-72
2023/06/04 09:28:05;;;;;;;2.00;0.40;;;20.70;62.20;;;;;;5069992;28;20070;-72
2023/06/04 09:30:31;;;;;;;2.08;0.35;;;20.90;62.60;;;;;;5065444;28;20056;-72
2023/06/04 09:33:06;;;;;;;2.47;0.40;;;21.10;62.10;;;;;;5068882;28;20111;-72
2023/06/04 09:35:32;;;;;;;1.98;0.35;;;21.20;60.40;;;;;;5068300;28;20029;-72
2023/06/04 09:37:58;;;;;;;1.80;0.30;;;21.10;58.70;;;;;;5059068;28;20102;-72
2023/06/04 09:40:24;;;;;;;2.40;0.30;;;21.10;58.40;;;;;;5035549;28;20044;-72
2023/06/04 09:42:57;;;;;;;1.30;0.20;;;21.20;58.90;;;;;;5062857;28;20127;-72
2023/06/04 09:45:31;;;;;;;1.38;0.30;;;21.30;58.80;;;;;;5068538;28;20020;-72
2023/06/04 09:48:00;;;;;;;1.17;0.30;;;21.40;56.90;;;;;;5065408;28;20488;-73
2023/06/04 09:50:27;;;;;;;3.65;0.30;;;21.40;55.90;;;;;;5055186;28;20372;-73
2023/06/04 09:52:53;;;;;;;1.40;0.28;;;21.30;55.10;;;;;;5060099;28;20041;-72
2023/06/04 09:55:22;;;;;;;1.27;0.30;;;21.40;56.20;;;;;;5063942;28;20033;-72
2023/06/04 09:57:51;;;;;;;1.15;0.40;;;21.60;55.90;;;;;;5058727;28;20025;-75
2023/06/04 10:00:21;;;;;;;1.65;0.30;;;21.80;54.20;;;;;;5030952;28;20020;-73
2023/06/04 10:02:47;;;;;;;3.40;0.40;;;21.80;55.10;;;;;;5062066;28;20488;-71
2023/06/04 10:05:14;;;;;;;1.95;0.22;;;21.90;54.60;;;;;;5061159;28;20029;-73
2023/06/04 10:07:44;;;;;;;1.20;0.30;;;21.90;52.60;;;;;;5061998;28;20020;-73
2023/06/04 10:10:23;;;;;;;0.93;0.30;;;22.00;52.60;;;;;;5062305;28;20025;-73
2023/06/04 10:12:53;;;;;;;2.88;0.50;;;22.10;53.00;;;;;;5061857;28;20396;-72
2023/06/04 10:15:20;;;;;;;2.75;0.40;;;22.20;53.10;;;;;;5054902;28;20027;-73
2023/06/04 10:17:48;;;;;;;0.90;0.30;;;22.30;52.90;;;;;;5069717;28;20021;-73
2023/06/04 10:20:14;;;;;;;0.68;0.20;;;22.40;52.60;;;;;;5066423;28;20032;-73
2023/06/04 10:22:40;;;;;;;0.70;0.20;;;22.40;51.60;;;;;;5065613;28;20539;-73
2023/06/04 10:25:08;;;;;;;1.38;0.20;;;22.40;51.30;;;;;;5066015;28;20086;-73
2023/06/04 10:27:37;;;;;;;1.00;0.20;;;22.40;51.60;;;;;;5064648;28;20397;-74
2023/06/04 10:30:04;;;;;;;1.17;0.20;;;22.50;51.60;;;;;;5070702;28;20027;-73
2023/06/04 10:32:30;;;;;;;2.67;0.20;;;22.50;51.60;;;;;;5061809;28;20028;-71
2023/06/04 10:34:57;;;;;;;1.35;0.22;;;22.60;50.90;;;;;;5061447;28;20162;-73
2023/06/04 10:37:26;;;;;;;1.88;0.30;;;22.60;51.00;;;;;;5066757;28;20408;-71
2023/06/04 10:39:56;;;;;;;4.40;1.50;;;22.70;50.80;;;;;;5065363;28;20075;-71
2023/06/04 10:42:23;;;;;;;1.95;0.40;;;22.70;50.50;;;;;;5060987;28;20051;-71
2023/06/04 10:44:50;;;;;;;1.00;0.30;;;22.60;50.90;;;;;;5058904;28;20496;-71
2023/06/04 10:47:27;;;;;;;1.50;0.25;;;22.60;50.20;;;;;;5065331;28;20115;-73
2023/06/04 10:49:54;;;;;;;1.15;0.30;;;22.50;50.60;;;;;;5069783;28;20100;-71
2023/06/04 10:52:21;;;;;;;1.52;0.30;;;22.60;50.80;;;;;;5059715;28;20838;-72
2023/06/04 10:54:53;;;;;;;1.45;0.28;;;22.70;51.20;;;;;;5068202;28;20021;-71
2023/06/04 10:57:19;;;;;;;2.47;0.38;;;22.80;50.60;;;;;;5034349;28;20188;-72
2023/06/04 10:59:59;;;;;;;0.73;0.30;;;22.80;50.40;;;;;;5048557;28;20053;-72
2023/06/04 11:02:25;;;;;;;1.17;0.30;;;23.10;50.50;;;;;;5032506;28;20381;-72
2023/06/04 11:05:09;;;;;;;1.77;0.20;;;23.10;50.30;;;;;;5067663;28;20028;-73
2023/06/04 11:07:49;;;;;;;0.75;0.30;;;23.10;50.10;;;;;;5063452;28;20476;-72
2023/06/04 11:10:17;;;;;;;1.42;0.30;;;23.20;49.60;;;;;;5062573;28;20033;-73
2023/06/04 11:12:46;;;;;;;1.40;0.30;;;23.10;49.30;;;;;;5061001;28;20071;-72
2023/06/04 11:15:13;;;;;;;2.28;0.30;;;22.90;49.50;;;;;;5049020;28;20040;-72
2023/06/04 11:17:52;;;;;;;2.35;0.55;;;22.80;50.20;;;;;;5050555;28;20033;-72
2023/06/04 11:20:19;;;;;;;1.70;0.40;;;23.00;50.70;;;;;;5040595;28;20115;-73
2023/06/04 11:23:03;;;;;;;2.95;0.57;;;23.10;51.00;;;;;;5067943;28;20036;-72
2023/06/04 11:25:30;;;;;;;1.08;0.40;;;23.00;50.60;;;;;;5067926;28;20506;-71
2023/06/04 11:27:57;;;;;;;2.28;0.30;;;22.90;51.00;;;;;;5071325;28;20056;-72
2023/06/04 11:30:23;;;;;;;2.53;0.60;;;23.00;51.20;;;;;;5065195;28;20032;-72
2023/06/04 11:32:50;;;;;;;0.85;0.20;;;23.10;51.10;;;;;;5064218;28;20040;-72
2023/06/04 11:35:16;;;;;;;0.70;0.30;;;23.10;51.50;;;;;;5070979;28;20488;-72
2023/06/04 11:37:41;;;;;;;3.90;0.30;;;23.20;50.90;;;;;;5064159;28;20101;-72
2023/06/04 11:40:17;;;;;;;1.05;0.40;;;23.20;51.20;;;;;;5071402;28;20020;-72
2023/06/04 11:42:44;;;;;;;0.93;0.28;;;23.30;51.20;;;;;;5070402;28;20037;-71
2023/06/04 11:45:12;;;;;;;2.15;0.50;;;23.30;51.60;;;;;;5065742;28;20025;-72
2023/06/04 11:47:38;;;;;;;1.42;0.28;;;23.40;51.20;;;;;;5066721;28;20058;-73
2023/06/04 11:50:04;;;;;;;2.17;0.30;;;23.50;50.30;;;;;;5068738;28;20025;-72
2023/06/04 11:52:30;;;;;;;3.70;0.40;;;23.40;50.40;;;;;;5068013;28;20032;-72
2023/06/04 11:54:55;;;;;;;2.65;0.65;;;23.50;50.70;;;;;;5066834;28;20033;-73
2023/06/04 11:57:22;;;;;;;0.57;0.20;;;23.60;50.90;;;;;;5064657;28;20040;-72
2023/06/04 11:59:48;;;;;;;4.22;0.40;;;23.60;49.80;;;;;;5057778;28;20377;-72
2023/06/04 12:02:13;;;;;;;0.90;0.40;;;23.60;50.00;;;;;;5060942;28;20037;-72
2023/06/04 12:04:39;;;;;;;0.80;0.30;;;23.60;50.40;;;;;;5058988;28;20032;-72
2023/06/04 12:07:06;;;;;;;1.33;0.25;;;23.60;50.00;;;;;;5070237;28;20032;-72
2023/06/04 12:09:37;;;;;;;1.15;0.30;;;23.60;49.90;;;;;;5062032;28;20476;-72
2023/06/04 12:12:04;;;;;;;0.93;0.30;;;23.70;49.50;;;;;;5069502;28;20511;-72
2023/06/04 12:14:31;;;;;;;1.77;0.40;;;23.80;49.90;;;;;;5069225;28;20240;-72
2023/06/04 12:17:09;;;;;;;4.55;0.40;;;23.90;49.40;;;;;;5068889;28;20534;-72
2023/06/04 12:19:48;;;;;;;0.70;0.30;;;23.90;49.50;;;;;;5071831;28;20561;-72
2023/06/04 12:22:13;;;;;;;1.25;0.30;;;24.00;49.20;;;;;;5052182;28;20033;-72
2023/06/04 12:24:57;;;;;;;3.00;0.30;;;24.00;49.70;;;;;;5071222;28;20437;-72
2023/06/04 12:27:25;;;;;;;0.77;0.30;;;24.00;49.40;;;;;;5071358;28;20074;-72
2023/06/04 12:30:02;;;;;;;1.25;0.30;;;24.10;49.60;;;;;;5071974;28;20025;-72
2023/06/04 12:32:28;;;;;;;1.25;0.40;;;24.40;49.50;;;;;;5052377;28;20493;-72
2023/06/04 12:34:54;;;;;;;1.55;0.30;;;24.40;48.70;;;;;;5072253;28;20111;-72
2023/06/04 12:37:21;;;;;;;3.03;0.40;;;24.30;49.30;;;;;;5069329;28;20045;-72
2023/06/04 12:39:47;;;;;;;1.85;0.30;;;24.30;48.20;;;;;;5054016;28;20598;-72
2023/06/04 12:42:14;;;;;;;0.65;0.22;;;24.30;48.70;;;;;;5071477;28;20138;-73
2023/06/04 12:44:40;;;;;;;2.60;0.40;;;24.40;48.60;;;;;;5067269;28;20392;-72
2023/06/04 12:47:09;;;;;;;1.20;0.30;;;24.40;48.50;;;;;;5052382;28;20032;-72